createdAt,value
2022-10-23T00:01:18.903Z,101198.03
2022-10-23T00:03:47.349Z,101203.47
2022-10-23T00:06:16.248Z,101202.50
2022-10-23T00:08:44.625Z,101195.50
2022-10-23T00:11:14.828Z,101198.03
2022-10-23T00:13:42.884Z,101192.91
2022-10-23T00:16:11.391Z,101195.69
2022-10-23T00:18:41.139Z,101198.41
2022-10-23T00:21:11.940Z,101175.72
2022-10-23T00:23:40.483Z,101199.41
2022-10-23T00:26:11.091Z,101203.78
2022-10-23T00:28:39.239Z,101202.06
2022-10-23T00:31:07.697Z,101202.97
2022-10-23T00:33:35.925Z,101204.84
2022-10-23T00:36:07.361Z,101203.16
2022-10-23T00:38:36.142Z,101200.59
2022-10-23T00:41:05.272Z,101195.31
2022-10-23T00:43:34.122Z,101193.75
2022-10-23T00:46:02.623Z,101197.69
2022-10-23T00:48:30.738Z,101193.66
2022-10-23T00:50:58.692Z,101200.03
2022-10-23T00:53:28.081Z,101198.19
2022-10-23T00:55:57.629Z,101201.59
2022-10-23T00:58:25.684Z,101206.75
2022-10-23T01:00:56.063Z,101201.38
2022-10-23T01:03:27.236Z,101207.53
2022-10-23T01:06:01.710Z,101208.44
2022-10-23T01:08:35.502Z,101208.31
2022-10-23T01:11:11.432Z,101211.06
2022-10-23T01:13:45.650Z,101210.84
2022-10-23T01:16:19.731Z,101201.75
2022-10-23T01:18:55.610Z,101199.00
2022-10-23T01:21:29.725Z,101197.94
2022-10-23T01:24:32.151Z,101190.72
2022-10-23T01:27:16.871Z,101194.25
2022-10-23T01:29:47.697Z,101194.06
2022-10-23T01:32:21.026Z,101187.81
2022-10-23T01:34:52.943Z,101194.88
2022-10-23T01:37:25.218Z,101182.50
2022-10-23T01:39:56.863Z,101191.38
2022-10-23T01:42:30.955Z,101194.00
2022-10-23T01:45:02.893Z,101200.31
2022-10-23T01:47:34.663Z,101201.13
2022-10-23T01:50:04.928Z,101194.06
2022-10-23T01:52:33.033Z,101194.06
2022-10-23T01:55:02.333Z,101198.63
2022-10-23T01:57:33.720Z,101195.06
2022-10-23T02:00:04.934Z,101193.25
2022-10-23T02:02:34.849Z,101181.91
2022-10-23T02:05:08.557Z,101185.22
2022-10-23T02:07:37.564Z,101185.31
2022-10-23T02:10:07.268Z,101180.97
2022-10-23T02:12:51.204Z,101180.03
2022-10-23T02:15:26.327Z,101176.56
2022-10-23T02:18:03.197Z,101176.63
2022-10-23T02:20:38.097Z,101146.84
2022-10-23T02:23:16.418Z,101170.41
2022-10-23T02:25:51.397Z,101167.09
2022-10-23T02:28:26.430Z,101171.59
2022-10-23T02:30:56.145Z,101158.53
2022-10-23T02:33:27.402Z,101170.44
2022-10-23T02:35:55.646Z,101167.09
2022-10-23T02:38:38.032Z,101164.47
2022-10-23T02:41:18.283Z,101168.13
2022-10-23T02:43:58.914Z,101173.38
2022-10-23T02:46:31.338Z,101175.91
2022-10-23T02:49:08.666Z,101174.00
2022-10-23T02:51:45.665Z,101175.69
2022-10-23T02:54:31.345Z,101181.13
2022-10-23T02:57:04.343Z,101176.69
2022-10-23T02:59:44.008Z,101177.00
2022-10-23T03:02:20.677Z,101180.69
2022-10-23T03:04:49.776Z,101169.31
2022-10-23T03:07:20.885Z,101168.53
2022-10-23T03:09:48.908Z,101169.28
2022-10-23T03:12:16.885Z,101171.81
2022-10-23T03:14:46.190Z,101166.47
2022-10-23T03:17:14.175Z,101162.00
2022-10-23T03:19:42.135Z,101162.72
2022-10-23T03:22:10.065Z,101153.34
2022-10-23T03:24:38.030Z,101159.72
2022-10-23T03:27:06.040Z,101168.94
2022-10-23T03:29:33.989Z,101168.38
2022-10-23T03:32:03.298Z,101172.00
2022-10-23T03:34:31.333Z,101169.38
2022-10-23T03:36:59.294Z,101168.44
2022-10-23T03:39:27.409Z,101162.06
2022-10-23T03:41:55.483Z,101158.44
2022-10-23T03:44:23.562Z,101164.66
2022-10-23T03:46:51.582Z,101164.75
2022-10-23T03:49:20.985Z,101157.75
2022-10-23T03:51:52.148Z,101160.66
2022-10-23T03:54:22.050Z,101152.78
2022-10-23T03:56:52.518Z,101164.13
2022-10-23T03:59:23.415Z,101164.94
2022-10-23T04:01:51.532Z,101166.66
2022-10-23T04:04:21.000Z,101158.56
2022-10-23T04:06:48.968Z,101163.25
2022-10-23T04:09:17.350Z,101158.00
2022-10-23T04:11:45.409Z,101156.34
2022-10-23T04:14:14.764Z,101157.41
2022-10-23T04:16:42.908Z,101157.56
2022-10-23T04:19:10.880Z,101162.25
2022-10-23T04:21:40.257Z,101150.53
2022-10-23T04:24:08.550Z,101152.22
2022-10-23T04:26:36.525Z,101152.97
2022-10-23T04:29:04.671Z,101138.38
2022-10-23T04:31:32.613Z,101147.75
2022-10-23T04:34:00.596Z,101143.53
2022-10-23T04:36:28.580Z,101141.56
2022-10-23T04:38:57.861Z,101139.09
2022-10-23T04:41:25.792Z,101147.31
2022-10-23T04:43:53.775Z,101146.41
2022-10-23T04:46:21.792Z,101141.91
2022-10-23T04:48:49.756Z,101128.72
2022-10-23T04:51:17.691Z,101130.59
2022-10-23T04:53:45.689Z,101130.59
2022-10-23T04:56:16.450Z,101127.97
2022-10-23T04:58:45.263Z,101109.75
2022-10-23T05:01:13.342Z,101129.88
2022-10-23T05:03:41.411Z,101135.22
2022-10-23T05:06:09.438Z,101136.16
2022-10-23T05:08:37.596Z,101133.47
2022-10-23T05:11:06.044Z,101135.28
2022-10-23T05:13:36.185Z,101135.41
2022-10-23T05:16:04.435Z,101130.97
2022-10-23T05:18:36.505Z,101126.53
2022-10-23T05:21:11.302Z,101125.59
2022-10-23T05:23:42.063Z,101127.50
2022-10-23T05:26:10.061Z,101133.06
2022-10-23T05:28:39.385Z,101128.88
2022-10-23T05:31:07.753Z,101121.13
2022-10-23T05:33:37.164Z,101117.38
2022-10-23T05:36:05.737Z,101125.41
2022-10-23T05:38:35.994Z,101121.81
2022-10-23T05:41:04.291Z,101117.25
2022-10-23T05:43:32.239Z,101120.66
2022-10-23T05:46:05.577Z,101114.56
2022-10-23T05:48:35.457Z,101119.06
2022-10-23T05:51:05.452Z,101122.75
2022-10-23T05:53:35.184Z,101126.28
2022-10-23T05:56:08.380Z,101119.09
2022-10-23T05:58:36.464Z,101124.38
2022-10-23T06:01:08.064Z,101125.25
2022-10-23T06:03:36.345Z,101118.91
2022-10-23T06:06:05.483Z,101131.44
2022-10-23T06:08:34.250Z,101141.22
2022-10-23T06:11:07.188Z,101146.69
2022-10-23T06:13:35.160Z,101143.09
2022-10-23T06:16:11.478Z,101138.72
2022-10-23T06:18:39.521Z,101131.78
2022-10-23T06:21:08.377Z,101135.31
2022-10-23T06:23:38.473Z,101125.47
2022-10-23T06:26:08.216Z,101140.47
2022-10-23T06:28:36.635Z,101134.97
2022-10-23T06:31:06.070Z,101142.16
2022-10-23T06:33:35.813Z,101150.31
2022-10-23T06:36:05.458Z,101147.75
2022-10-23T06:38:36.779Z,101145.19
2022-10-23T06:41:05.889Z,101144.28
2022-10-23T06:43:33.851Z,101143.50
2022-10-23T06:46:03.306Z,101142.56
2022-10-23T06:48:31.937Z,101137.31
2022-10-23T06:51:05.326Z,101139.09
2022-10-23T06:53:33.369Z,101134.75
2022-10-23T06:56:02.106Z,101139.13
2022-10-23T06:58:30.159Z,101131.81
2022-10-23T07:01:01.809Z,101130.97
2022-10-23T07:03:30.107Z,101130.84
2022-10-23T07:06:03.008Z,101119.34
2022-10-23T07:08:31.376Z,101134.19
2022-10-23T07:10:59.398Z,101132.31
2022-10-23T07:13:27.371Z,101130.41
2022-10-23T07:15:55.368Z,101131.16
2022-10-23T07:18:23.365Z,101133.69
2022-10-23T07:20:58.532Z,101129.13
2022-10-23T07:23:27.901Z,101136.97
2022-10-23T07:25:55.941Z,101137.81
2022-10-23T07:28:23.881Z,101135.81
2022-10-23T07:30:57.796Z,101142.84
2022-10-23T07:33:25.802Z,101150.72
2022-10-23T07:35:53.834Z,101143.47
2022-10-23T07:38:21.806Z,101143.38
2022-10-23T07:40:51.194Z,101145.88
2022-10-23T07:43:20.861Z,101141.25
2022-10-23T07:45:49.792Z,101117.47
2022-10-23T07:48:18.132Z,101132.25
2022-10-23T07:50:46.133Z,101139.97
2022-10-23T07:53:19.431Z,101136.34
2022-10-23T07:55:54.973Z,101134.44
2022-10-23T07:58:23.463Z,101130.75
2022-10-23T08:00:56.440Z,101137.72
2022-10-23T08:03:24.677Z,101136.63
2022-10-23T08:05:53.701Z,101132.97
2022-10-23T08:08:21.710Z,101135.44
2022-10-23T08:10:50.705Z,101133.41
2022-10-23T08:13:21.079Z,101135.00
2022-10-23T08:15:50.747Z,101124.94
2022-10-23T08:18:18.897Z,101119.38
2022-10-23T08:20:48.994Z,101120.00
2022-10-23T08:23:20.813Z,101119.78
2022-10-23T08:25:48.969Z,101119.50
2022-10-23T08:28:16.988Z,101126.38
2022-10-23T08:30:46.310Z,101126.94
2022-10-23T08:33:14.248Z,101126.69
2022-10-23T08:35:42.225Z,101120.16
2022-10-23T08:38:11.196Z,101111.09
2022-10-23T08:40:39.641Z,101118.66
2022-10-23T08:43:17.084Z,101112.97
2022-10-23T08:45:49.603Z,101112.56
2022-10-23T08:48:23.605Z,101114.09
2022-10-23T08:50:57.198Z,101106.50
2022-10-23T08:53:30.705Z,101103.53
2022-10-23T08:56:03.498Z,101111.38
2022-10-23T08:58:37.653Z,101112.31
2022-10-23T09:01:27.404Z,101104.78
2022-10-23T09:03:55.437Z,101100.03
2022-10-23T09:06:35.022Z,101109.59
2022-10-23T09:09:21.336Z,101076.81
2022-10-23T09:11:58.697Z,101098.59
2022-10-23T09:14:40.145Z,101093.91
2022-10-23T09:17:23.894Z,101091.22
2022-10-23T09:19:56.984Z,101083.00
2022-10-23T09:22:24.985Z,101075.09
2022-10-23T09:24:53.913Z,101080.75
2022-10-23T09:27:22.257Z,101084.06
2022-10-23T09:29:52.605Z,101082.16
2022-10-23T09:32:34.352Z,101081.16
2022-10-23T09:35:02.492Z,101076.22
2022-10-23T09:37:32.602Z,101075.97
2022-10-23T09:40:16.383Z,101083.63
2022-10-23T09:42:55.745Z,101073.50
2022-10-23T09:45:26.613Z,101074.06
2022-10-23T09:48:07.482Z,101073.41
2022-10-23T09:50:35.509Z,101073.50
2022-10-23T09:53:03.867Z,101076.75
2022-10-23T09:55:31.965Z,101070.34
2022-10-23T09:58:00.021Z,101079.69
2022-10-23T10:00:28.522Z,101080.38
2022-10-23T10:02:59.483Z,101073.06
2022-10-23T10:05:31.087Z,101078.03
2022-10-23T10:08:04.612Z,101072.53
2022-10-23T10:10:38.820Z,101073.72
2022-10-23T10:13:23.416Z,101069.84
2022-10-23T10:15:56.568Z,101071.06
2022-10-23T10:18:29.633Z,101067.44
2022-10-23T10:21:12.025Z,101058.03
2022-10-23T10:23:48.456Z,101050.56
2022-10-23T10:26:31.640Z,101053.66
2022-10-23T10:29:12.142Z,101048.06
2022-10-23T10:31:53.162Z,101053.22
2022-10-23T10:34:29.768Z,101040.53
2022-10-23T10:37:05.420Z,101030.34
2022-10-23T10:39:40.441Z,101022.34
2022-10-23T10:42:28.109Z,101020.34
2022-10-23T10:45:08.921Z,101014.28
2022-10-23T10:47:46.049Z,101004.03
2022-10-23T10:50:20.229Z,101003.63
2022-10-23T10:52:59.918Z,100994.06
2022-10-23T10:55:34.480Z,100991.84
2022-10-23T10:58:11.678Z,100987.13
2022-10-23T11:00:39.734Z,100981.94
2022-10-23T11:03:23.581Z,100974.41
2022-10-23T11:05:54.472Z,100981.16
2022-10-23T11:08:44.548Z,100974.91
2022-10-23T11:11:29.275Z,100958.75
2022-10-23T11:13:57.672Z,100962.47
2022-10-23T11:16:29.482Z,100962.63
2022-10-23T11:19:08.756Z,100956.31
2022-10-23T11:21:44.403Z,100964.88
2022-10-23T11:24:53.391Z,100959.69
2022-10-23T11:27:39.718Z,100950.69
2022-10-23T11:30:22.308Z,100950.84
2022-10-23T11:33:26.612Z,100956.88
2022-10-23T11:36:05.509Z,100948.22
2022-10-23T11:38:35.934Z,100941.59
2022-10-23T11:41:08.009Z,100932.16
2022-10-23T11:43:48.342Z,100932.56
2022-10-23T11:46:30.932Z,100931.22
2022-10-23T11:49:02.485Z,100927.16
2022-10-23T11:51:32.967Z,100896.88
2022-10-23T11:54:24.685Z,100900.38
2022-10-23T11:57:03.780Z,100888.22
2022-10-23T11:59:33.208Z,100897.53
2022-10-23T12:02:04.333Z,100887.25
2022-10-23T12:04:40.700Z,100889.59
2022-10-23T12:07:23.064Z,100886.13
2022-10-23T12:09:55.428Z,100876.47
2022-10-23T12:12:34.012Z,100873.78
2022-10-23T12:15:23.576Z,100876.56
2022-10-23T12:17:54.120Z,100869.59
2022-10-23T12:20:31.758Z,100862.78
2022-10-23T12:23:36.409Z,100858.25
2022-10-23T12:26:24.340Z,100857.66
2022-10-23T12:29:02.976Z,100857.13
2022-10-23T12:31:45.642Z,100828.00
2022-10-23T12:34:28.416Z,100821.28
2022-10-23T12:37:09.967Z,100839.00
2022-10-23T12:39:39.239Z,100833.59
2022-10-23T12:42:17.050Z,100827.78
2022-10-23T12:44:46.449Z,100819.91
2022-10-23T12:47:19.352Z,100811.09
2022-10-23T12:49:50.356Z,100807.66
2022-10-23T12:52:20.969Z,100795.09
2022-10-23T12:54:50.754Z,100802.94
2022-10-23T12:57:23.204Z,100788.59
2022-10-23T12:59:56.624Z,100784.78
2022-10-23T13:02:26.977Z,100777.03
2022-10-23T13:04:57.105Z,100771.03
2022-10-23T13:07:28.934Z,100768.69
2022-10-23T13:09:58.653Z,100755.44
2022-10-23T13:12:29.242Z,100762.16
2022-10-23T13:15:03.187Z,100750.81
2022-10-23T13:17:40.631Z,100742.28
2022-10-23T13:20:20.855Z,100739.63
2022-10-23T13:22:56.372Z,100739.91
2022-10-23T13:25:29.976Z,100731.88
2022-10-23T13:28:13.298Z,100721.28
2022-10-23T13:30:46.180Z,100710.44
2022-10-23T13:33:24.325Z,100718.59
2022-10-23T13:35:58.770Z,100718.69
2022-10-23T13:38:31.436Z,100705.44
2022-10-23T13:41:00.848Z,100701.91
2022-10-23T13:43:30.759Z,100704.22
2022-10-23T13:46:01.388Z,100694.66
2022-10-23T13:48:29.840Z,100685.44
2022-10-23T13:51:03.817Z,100693.25
2022-10-23T13:53:31.730Z,100692.41
2022-10-23T13:55:59.691Z,100689.72
2022-10-23T13:58:27.694Z,100677.53
2022-10-23T14:00:55.804Z,100679.28
2022-10-23T14:03:25.357Z,100682.50
2022-10-23T14:05:53.297Z,100676.16
2022-10-23T14:08:21.274Z,100666.88
2022-10-23T14:10:49.336Z,100672.44
2022-10-23T14:13:17.468Z,100674.09
2022-10-23T14:15:45.484Z,100676.09
2022-10-23T14:18:13.536Z,100668.94
2022-10-23T14:20:42.929Z,100664.28
2022-10-23T14:23:10.972Z,100672.78
2022-10-23T14:25:38.964Z,100675.72
2022-10-23T14:28:07.014Z,100673.81
2022-10-23T14:30:37.637Z,100660.94
2022-10-23T14:33:05.920Z,100662.88
2022-10-23T14:35:33.879Z,100654.34
2022-10-23T14:38:03.257Z,100652.06
2022-10-23T14:40:31.326Z,100652.16
2022-10-23T14:42:59.390Z,100651.56
2022-10-23T14:45:27.485Z,100649.78
2022-10-23T14:47:55.483Z,100631.16
2022-10-23T14:50:23.884Z,100653.81
2022-10-23T14:52:52.787Z,100651.31
2022-10-23T14:55:22.158Z,100642.47
2022-10-23T14:57:50.217Z,100632.53
2022-10-23T15:00:18.482Z,100636.97
2022-10-23T15:02:46.694Z,100637.31
2022-10-23T15:05:15.059Z,100627.81
2022-10-23T15:07:43.033Z,100627.91
2022-10-23T15:10:11.679Z,100630.69
2022-10-23T15:12:41.563Z,100609.34
2022-10-23T15:15:11.983Z,100637.34
2022-10-23T15:17:41.479Z,100618.38
2022-10-23T15:20:10.420Z,100628.06
2022-10-23T15:22:38.400Z,100619.41
2022-10-23T15:25:07.721Z,100605.78
2022-10-23T15:27:36.066Z,100604.28
2022-10-23T15:30:06.188Z,100615.38
2022-10-23T15:32:34.236Z,100611.88
2022-10-23T15:35:02.190Z,100603.19
2022-10-23T15:37:30.145Z,100592.91
2022-10-23T15:40:01.282Z,100566.22
2022-10-23T15:42:30.478Z,100583.75
2022-10-23T15:44:58.508Z,100571.50
2022-10-23T15:47:27.870Z,100564.53
2022-10-23T15:49:55.878Z,100577.34
2022-10-23T15:52:23.859Z,100577.59
2022-10-23T15:54:51.817Z,100563.53
2022-10-23T15:57:19.789Z,100563.44
2022-10-23T15:59:47.844Z,100577.09
2022-10-23T16:02:15.909Z,100581.69
2022-10-23T16:04:45.499Z,100567.66
2022-10-23T16:07:13.497Z,100563.06
2022-10-23T16:09:41.589Z,100554.16
2022-10-23T16:12:09.879Z,100540.25
2022-10-23T16:14:37.853Z,100529.91
2022-10-23T16:17:07.540Z,100516.72
2022-10-23T16:19:35.593Z,100510.47
2022-10-23T16:22:05.034Z,100496.03
2022-10-23T16:24:33.397Z,100495.19
2022-10-23T16:27:01.837Z,100480.50
2022-10-23T16:29:29.870Z,100487.22
2022-10-23T16:31:59.823Z,100491.00
2022-10-23T16:34:27.955Z,100498.72
2022-10-23T16:36:55.926Z,100486.31
2022-10-23T16:39:25.337Z,100491.94
2022-10-23T16:41:53.347Z,100486.47
2022-10-23T16:44:21.408Z,100493.44
2022-10-23T16:46:49.357Z,100491.78
2022-10-23T16:49:17.434Z,100495.47
2022-10-23T16:51:45.428Z,100510.63
2022-10-23T16:54:14.528Z,100506.78
2022-10-23T16:56:44.916Z,100510.47
2022-10-23T16:59:13.054Z,100496.28
2022-10-23T17:01:42.267Z,100495.34
2022-10-23T17:04:10.311Z,100507.00
2022-10-23T17:06:38.579Z,100511.47
2022-10-23T17:09:07.090Z,100497.94
2022-10-23T17:11:36.928Z,100491.00
2022-10-23T17:14:08.521Z,100486.88
2022-10-23T17:16:38.857Z,100486.81
2022-10-23T17:19:20.526Z,100492.41
2022-10-23T17:21:57.559Z,100485.44
2022-10-23T17:24:25.942Z,100477.56
2022-10-23T17:26:54.657Z,100470.38
2022-10-23T17:29:24.011Z,100469.72
2022-10-23T17:31:52.993Z,100469.88
2022-10-23T17:34:23.982Z,100462.91
2022-10-23T17:36:53.331Z,100458.50
2022-10-23T17:39:23.938Z,100458.59
2022-10-23T17:41:52.483Z,100451.31
2022-10-23T17:44:20.546Z,100445.09
2022-10-23T17:46:54.301Z,100444.38
2022-10-23T17:49:22.792Z,100439.94
2022-10-23T17:51:53.078Z,100429.28
2022-10-23T17:54:21.025Z,100429.00
2022-10-23T17:56:49.037Z,100429.16
2022-10-23T17:59:19.025Z,100421.19
2022-10-23T18:01:48.129Z,100409.84
2022-10-23T18:04:19.894Z,100404.84
2022-10-23T18:06:50.591Z,100398.44
2022-10-23T18:09:18.700Z,100400.19
2022-10-23T18:11:48.472Z,100396.66
2022-10-23T18:14:17.555Z,100391.22
2022-10-23T18:16:46.541Z,100390.56
2022-10-23T18:19:14.825Z,100396.75
2022-10-23T18:21:44.185Z,100398.44
2022-10-23T18:24:12.398Z,100410.84
2022-10-23T18:26:42.536Z,100420.78
2022-10-23T18:29:12.483Z,100435.88
2022-10-23T18:31:41.848Z,100430.34
2022-10-23T18:34:15.500Z,100423.22
2022-10-23T18:36:45.432Z,100412.50
2022-10-23T18:39:16.262Z,100430.41
2022-10-23T18:41:46.503Z,100417.94
2022-10-23T18:44:16.907Z,100409.25
2022-10-23T18:46:45.341Z,100394.91
2022-10-23T18:49:13.828Z,100399.50
2022-10-23T18:51:42.258Z,100407.66
2022-10-23T18:54:13.811Z,100406.66
2022-10-23T18:56:42.080Z,100420.13
2022-10-23T18:59:13.397Z,100401.28
2022-10-23T19:01:42.141Z,100397.81
2022-10-23T19:04:12.553Z,100387.97
2022-10-23T19:06:41.149Z,100401.00
2022-10-23T19:09:13.688Z,100397.75
2022-10-23T19:11:42.781Z,100427.59
2022-10-23T19:14:10.921Z,100414.09
2022-10-23T19:16:42.091Z,100414.97
2022-10-23T19:19:15.369Z,100422.91
2022-10-23T19:21:43.876Z,100418.28
2022-10-23T19:24:17.090Z,100407.50
2022-10-23T19:26:45.649Z,100407.31
2022-10-23T19:29:18.044Z,100414.34
2022-10-23T19:31:49.137Z,100411.44
2022-10-23T19:34:19.928Z,100407.59
2022-10-23T19:36:48.246Z,100408.50
2022-10-23T19:39:18.486Z,100406.69
2022-10-23T19:41:46.842Z,100409.31
2022-10-23T19:44:16.024Z,100399.44
2022-10-23T19:46:44.128Z,100400.31
2022-10-23T19:49:12.383Z,100397.47
2022-10-23T19:51:40.528Z,100400.06
2022-10-23T19:54:10.488Z,100400.03
2022-10-23T19:56:40.253Z,100404.25
2022-10-23T19:59:08.435Z,100415.72
2022-10-23T20:01:36.548Z,100427.31
2022-10-23T20:04:04.778Z,100426.28
2022-10-23T20:06:35.331Z,100407.75
2022-10-23T20:09:04.888Z,100410.34
2022-10-23T20:11:33.310Z,100401.28
2022-10-23T20:14:02.871Z,100403.06
2022-10-23T20:16:32.866Z,100414.84
2022-10-23T20:19:02.977Z,100408.59
2022-10-23T20:21:31.234Z,100405.06
2022-10-23T20:23:59.974Z,100403.22
2022-10-23T20:26:28.136Z,100390.75
2022-10-23T20:28:57.012Z,100395.34
2022-10-23T20:31:28.127Z,100384.78
2022-10-23T20:33:57.181Z,100382.88
2022-10-23T20:36:28.113Z,100370.50
2022-10-23T20:38:57.501Z,100363.31
2022-10-23T20:41:28.495Z,100358.13
2022-10-23T20:43:57.281Z,100335.63
2022-10-23T20:46:27.071Z,100319.38
2022-10-23T20:48:55.001Z,100302.19
2022-10-23T20:51:25.327Z,100270.28
2022-10-23T20:53:54.523Z,100286.47
2022-10-23T20:56:29.844Z,100297.28
2022-10-23T20:58:58.205Z,100301.94
2022-10-23T21:01:28.289Z,100306.44
2022-10-23T21:03:57.783Z,100305.66
2022-10-23T21:06:27.535Z,100309.34
2022-10-23T21:08:56.735Z,100307.41
2022-10-23T21:11:25.941Z,100311.88
2022-10-23T21:13:56.972Z,100315.44
2022-10-23T21:16:28.713Z,100305.66
2022-10-23T21:18:57.246Z,100299.41
2022-10-23T21:21:25.744Z,100302.16
2022-10-23T21:23:55.743Z,100310.13
2022-10-23T21:26:25.140Z,100309.28
2022-10-23T21:29:01.106Z,100295.00
2022-10-23T21:31:43.930Z,100285.06
2022-10-23T21:34:11.933Z,100275.44
2022-10-23T21:37:00.182Z,100287.91
2022-10-23T21:39:28.519Z,100283.56
2022-10-23T21:41:56.467Z,100276.25
2022-10-23T21:44:24.438Z,100261.16
2022-10-23T21:46:53.809Z,100251.28
2022-10-23T21:49:21.842Z,100237.88
2022-10-23T21:51:49.827Z,100232.69
2022-10-23T21:54:17.790Z,100219.09
2022-10-23T21:56:47.768Z,100221.03
2022-10-23T21:59:17.333Z,100217.31
2022-10-23T22:01:47.046Z,100212.81
2022-10-23T22:04:18.377Z,100211.06
2022-10-23T22:06:47.780Z,100204.94
2022-10-23T22:09:20.069Z,100205.88
2022-10-23T22:11:49.953Z,100206.75
2022-10-23T22:14:18.070Z,100202.25
2022-10-23T22:16:46.142Z,100183.22
2022-10-23T22:19:17.491Z,100198.28
2022-10-23T22:21:45.975Z,100188.59
2022-10-23T22:24:14.076Z,100219.56
2022-10-23T22:26:44.717Z,100226.34
2022-10-23T22:29:14.933Z,100236.03
2022-10-23T22:31:45.701Z,100197.47
2022-10-23T22:34:27.184Z,100227.91
2022-10-23T22:37:10.728Z,100241.16
2022-10-23T22:39:39.334Z,100243.06
2022-10-23T22:42:07.445Z,100240.47
2022-10-23T22:44:35.423Z,100240.47
2022-10-23T22:47:03.383Z,100234.13
2022-10-23T22:49:32.810Z,100209.63
2022-10-23T22:52:00.790Z,100229.38
2022-10-23T22:54:30.460Z,100221.31
2022-10-23T22:56:58.562Z,100231.53
2022-10-23T22:59:26.528Z,100243.06
2022-10-23T23:01:54.562Z,100245.59
2022-10-23T23:04:38.946Z,100245.59
2022-10-23T23:07:09.446Z,100240.31
2022-10-23T23:09:39.647Z,100241.41
2022-10-23T23:12:09.641Z,100244.94
2022-10-23T23:14:37.999Z,100252.13
2022-10-23T23:17:07.346Z,100262.69
2022-10-23T23:19:36.433Z,100258.66
2022-10-23T23:22:05.869Z,100258.47
2022-10-23T23:24:35.264Z,100251.28
2022-10-23T23:27:04.130Z,100261.00
2022-10-23T23:29:32.634Z,100265.59
2022-10-23T23:32:01.833Z,100282.56
2022-10-23T23:34:30.071Z,100281.69
2022-10-23T23:36:58.076Z,100277.34
2022-10-23T23:39:26.418Z,100281.22
2022-10-23T23:41:55.840Z,100278.38
2022-10-23T23:44:23.801Z,100281.88
2022-10-23T23:46:51.824Z,100281.78
2022-10-23T23:49:19.819Z,100292.59
2022-10-23T23:51:47.814Z,100295.44
2022-10-23T23:54:15.801Z,100300.09
2022-10-23T23:56:43.733Z,100285.81
2022-10-23T23:59:13.004Z,100296.84
